Eagle Tampa — S6NK6 — position and weather

sailwx.info

Track history (hours):
 
Tides and Currents Weather Stations Pressure Air Temp Water Temp Dewpoint Dewpoint Depression Visibility Wind Speed Wind Dir Waves Ship Positions

Eagle Tampa

Last reported at 2015-Dec-31 07:13 UTC. Time now 2016-Feb-06 07:12 UTC.
Position N 38°33' W 074°49'.
Warning: this ship's position is 36 days out of date.

Length 247 m; draft 8.5 m.

Type: Tanker. MMSI: 563936000.

Date/timePositionNaut miles runAvg speedWind from/ knotsBaromVisibWave heightAir tempDewpointWater temp
2015-Dec-31 07:13N 38°33' W 074°49'6 9.7
2015-Dec-31 06:33N 38°38' W 074°54'9 9.5
2015-Dec-31 05:33N 38°46' W 075°01'1010.3
2015-Dec-31 04:33N 38°55' W 075°06'1111.2
2015-Dec-31 03:33N 39°05' W 075°11'1111.5
2015-Dec-31 02:33N 39°15' W 075°19'1413.7
2015-Dec-31 01:33N 39°25' W 075°31'1312.6
2015-Dec-31 00:34N 39°38' W 075°35'1111.5
2015-Dec-30 23:34N 39°47' W 075°27'9 8.5
2015-Dec-30 22:31N 39°51' W 075°16'0 0.1
2015-Dec-30 21:31N 39°51' W 075°16'0 0.0
2015-Dec-30 20:31N 39°51' W 075°16'0 0.0
2015-Dec-30 19:31N 39°51' W 075°16'0 0.0
2015-Dec-30 18:31N 39°51' W 075°16'0 0.0
2015-Dec-30 17:31N 39°51' W 075°16'0 0.0
2015-Dec-30 16:31N 39°51' W 075°16'0 0.0
2015-Dec-30 15:28N 39°51' W 075°16'0 0.0
2015-Dec-30 14:31N 39°51' W 075°16'0 0.0
2015-Dec-30 13:22N 39°51' W 075°16'0 0.0
2015-Dec-30 12:31N 39°51' W 075°16'0 0.0
2015-Dec-30 11:31N 39°51' W 075°16'0 0.0
2015-Dec-30 10:31N 39°51' W 075°16'0 0.0
2015-Dec-30 09:28N 39°51' W 075°16'0 0.0
2015-Dec-30 08:31N 39°51' W 075°16'0 0.0
2015-Dec-30 07:31N 39°51' W 075°16'0 0.0
2015-Dec-30 06:31N 39°51' W 075°16'0 0.0
2015-Dec-30 05:31N 39°51' W 075°16'0 0.0
2015-Dec-30 04:28N 39°51' W 075°16'0 0.0
2015-Dec-30 03:25N 39°51' W 075°16'0 0.0
2015-Dec-30 02:31N 39°51' W 075°16'0 0.0
2015-Dec-30 01:31N 39°51' W 075°16'0 0.0
2015-Dec-30 00:31N 39°51' W 075°16'0 0.0
2015-Dec-29 23:34N 39°51' W 075°16'2 2.1
2015-Dec-29 22:33N 39°51' W 075°19'7 7.3
2015-Dec-29 21:33N 39°47' W 075°27'9 9.2
2015-Dec-29 20:33N 39°39' W 075°33'1010.1
2015-Dec-29 19:33N 39°29' W 075°34'1111.3
2015-Dec-29 18:33N 39°20' W 075°25'1212.1
2015-Dec-29 17:33N 39°10' W 075°16'1111.1
2015-Dec-29 16:33N 39°01' W 075°09'1212.0
2015-Dec-29 15:33N 38°49' W 075°03'9 9.0
2015-Dec-29 14:33N 38°43' W 074°55'1110.1
2015-Dec-29 13:29N 38°35' W 074°46'7 0.5
2015-Dec-28 23:07N 38°29' W 074°40'0 0.2
2015-Dec-28 22:19N 38°30' W 074°40'  
2015-Dec-26 11:22N 27°03' W 079°44'1316.4
2015-Dec-26 10:33N 26°50' W 079°45'1616.3
2015-Dec-26 09:33N 26°34' W 079°46'1616.2
2015-Dec-26 08:33N 26°17' W 079°48'1616.3
2015-Dec-26 07:34N 26°01' W 079°50'1716.6
2015-Dec-26 06:34N 25°45' W 079°52'1616.3
2015-Dec-26 05:34N 25°28' W 079°54'  
2015-Dec-21 15:15N 29°32' W 093°14'7 9.8
2015-Dec-21 14:33N 29°37' W 093°19'1211.7
2015-Dec-21 13:33N 29°49' W 093°21'9 9.3
2015-Dec-21 12:33N 29°58' W 093°20'8 8.0
2015-Dec-21 11:33N 30°06' W 093°20'5 5.0
2015-Dec-21 10:33N 30°11' W 093°19'0 0.1
2015-Dec-21 09:33N 30°11' W 093°19'0 0.0
2015-Dec-21 08:33N 30°11' W 093°19'0 0.0
2015-Dec-21 07:33N 30°11' W 093°19'  
Track history (hours):
 
Tides and Currents Weather Stations Pressure Air Temp Water Temp Dewpoint Dewpoint Depression Visibility Wind Speed Wind Dir Waves Ship Positions

Eagle Tampa

Last reported at 2015-Dec-31 07:13 UTC. Time now 2016-Feb-06 07:12 UTC.
Position N 38°33' W 074°49'.
Warning: this ship's position is 36 days out of date.

Length 247 m; draft 8.5 m.

Type: Tanker. MMSI: 563936000.

Date/timePositionNaut miles runAvg speedWind from/ knotsBaromVisibWave heightAir tempDewpointWater temp
2015-Dec-31 07:13N 38°33' W 074°49'6 9.7
2015-Dec-31 06:33N 38°38' W 074°54'9 9.5
2015-Dec-31 05:33N 38°46' W 075°01'1010.3
2015-Dec-31 04:33N 38°55' W 075°06'1111.2
2015-Dec-31 03:33N 39°05' W 075°11'1111.5
2015-Dec-31 02:33N 39°15' W 075°19'1413.7
2015-Dec-31 01:33N 39°25' W 075°31'1312.6
2015-Dec-31 00:34N 39°38' W 075°35'1111.5
2015-Dec-30 23:34N 39°47' W 075°27'9 8.5
2015-Dec-30 22:31N 39°51' W 075°16'0 0.1
2015-Dec-30 21:31N 39°51' W 075°16'0 0.0
2015-Dec-30 20:31N 39°51' W 075°16'0 0.0
2015-Dec-30 19:31N 39°51' W 075°16'0 0.0
2015-Dec-30 18:31N 39°51' W 075°16'0 0.0
2015-Dec-30 17:31N 39°51' W 075°16'0 0.0
2015-Dec-30 16:31N 39°51' W 075°16'0 0.0
2015-Dec-30 15:28N 39°51' W 075°16'0 0.0
2015-Dec-30 14:31N 39°51' W 075°16'0 0.0
2015-Dec-30 13:22N 39°51' W 075°16'0 0.0
2015-Dec-30 12:31N 39°51' W 075°16'0 0.0
2015-Dec-30 11:31N 39°51' W 075°16'0 0.0
2015-Dec-30 10:31N 39°51' W 075°16'0 0.0
2015-Dec-30 09:28N 39°51' W 075°16'0 0.0
2015-Dec-30 08:31N 39°51' W 075°16'0 0.0
2015-Dec-30 07:31N 39°51' W 075°16'0 0.0
2015-Dec-30 06:31N 39°51' W 075°16'0 0.0
2015-Dec-30 05:31N 39°51' W 075°16'0 0.0
2015-Dec-30 04:28N 39°51' W 075°16'0 0.0
2015-Dec-30 03:25N 39°51' W 075°16'0 0.0
2015-Dec-30 02:31N 39°51' W 075°16'0 0.0
2015-Dec-30 01:31N 39°51' W 075°16'0 0.0
2015-Dec-30 00:31N 39°51' W 075°16'0 0.0
2015-Dec-29 23:34N 39°51' W 075°16'2 2.1
2015-Dec-29 22:33N 39°51' W 075°19'7 7.3
2015-Dec-29 21:33N 39°47' W 075°27'9 9.2
2015-Dec-29 20:33N 39°39' W 075°33'1010.1
2015-Dec-29 19:33N 39°29' W 075°34'1111.3
2015-Dec-29 18:33N 39°20' W 075°25'1212.1
2015-Dec-29 17:33N 39°10' W 075°16'1111.1
2015-Dec-29 16:33N 39°01' W 075°09'1212.0
2015-Dec-29 15:33N 38°49' W 075°03'9 9.0
2015-Dec-29 14:33N 38°43' W 074°55'1110.1
2015-Dec-29 13:29N 38°35' W 074°46'7 0.5
2015-Dec-28 23:07N 38°29' W 074°40'0 0.2
2015-Dec-28 22:19N 38°30' W 074°40'  
2015-Dec-26 11:22N 27°03' W 079°44'1316.4
2015-Dec-26 10:33N 26°50' W 079°45'1616.3
2015-Dec-26 09:33N 26°34' W 079°46'1616.2
2015-Dec-26 08:33N 26°17' W 079°48'1616.3
2015-Dec-26 07:34N 26°01' W 079°50'1716.6
2015-Dec-26 06:34N 25°45' W 079°52'1616.3
2015-Dec-26 05:34N 25°28' W 079°54'  
2015-Dec-21 15:15N 29°32' W 093°14'7 9.8
2015-Dec-21 14:33N 29°37' W 093°19'1211.7
2015-Dec-21 13:33N 29°49' W 093°21'9 9.3
2015-Dec-21 12:33N 29°58' W 093°20'8 8.0
2015-Dec-21 11:33N 30°06' W 093°20'5 5.0
2015-Dec-21 10:33N 30°11' W 093°19'0 0.1
2015-Dec-21 09:33N 30°11' W 093°19'0 0.0
2015-Dec-21 08:33N 30°11' W 093°19'0 0.0
2015-Dec-21 07:33N 30°11' W 093°19'  

Dump ship's entire track history